createdAt,value
2019-05-21T00:01:13.003Z,29.00
2019-05-21T00:03:42.256Z,25.60
2019-05-21T00:06:10.693Z,26.07
2019-05-21T00:08:39.164Z,27.93
2019-05-21T00:11:07.590Z,28.60
2019-05-21T00:13:36.059Z,26.70
2019-05-21T00:16:04.629Z,27.35
2019-05-21T00:18:33.118Z,28.83
2019-05-21T00:21:01.568Z,28.57
2019-05-21T00:23:29.995Z,30.00
2019-05-21T00:25:58.463Z,28.60
2019-05-21T00:28:36.169Z,30.60
2019-05-21T00:31:41.765Z,26.40
2019-05-21T00:34:46.948Z,28.73
2019-05-21T00:37:51.992Z,31.42
2019-05-21T00:40:56.719Z,28.05
2019-05-21T00:43:28.216Z,29.40
2019-05-21T00:45:56.667Z,28.87
2019-05-21T00:48:25.235Z,26.77
2019-05-21T00:50:53.659Z,23.62
2019-05-21T00:53:22.176Z,27.30
2019-05-21T00:55:50.609Z,29.23
2019-05-21T00:58:19.193Z,28.38
2019-05-21T01:00:47.612Z,26.10
2019-05-21T01:03:16.117Z,25.75
2019-05-21T01:05:44.579Z,20.97
2019-05-21T01:08:13.305Z,23.40
2019-05-21T01:10:41.779Z,23.27
2019-05-21T01:13:10.275Z,23.87
2019-05-21T01:15:38.956Z,23.80
2019-05-21T01:18:07.404Z,24.23
2019-05-21T01:20:35.912Z,21.68
2019-05-21T01:23:04.672Z,24.70
2019-05-21T01:25:33.144Z,21.97
2019-05-21T01:28:01.615Z,21.80
2019-05-21T01:30:30.045Z,21.50
2019-05-21T01:32:58.504Z,21.90
2019-05-21T01:35:27.110Z,20.00
2019-05-21T01:37:55.635Z,19.85
2019-05-21T01:40:24.063Z,18.62
2019-05-21T01:42:52.601Z,19.67
2019-05-21T01:45:21.103Z,18.25
2019-05-21T01:47:49.566Z,18.90
2019-05-21T01:50:18.006Z,18.45
2019-05-21T01:52:46.474Z,16.02
2019-05-21T01:55:14.975Z,16.35
2019-05-21T01:57:43.442Z,15.72
2019-05-21T02:00:13.101Z,17.32
2019-05-21T02:02:41.653Z,15.65
2019-05-21T02:05:10.181Z,14.23
2019-05-21T02:07:38.634Z,16.15
2019-05-21T02:10:08.643Z,12.90
2019-05-21T02:12:37.080Z,13.22
2019-05-21T02:15:07.884Z,12.85
2019-05-21T02:17:36.332Z,12.45
2019-05-21T02:20:05.805Z,12.43
2019-05-21T02:22:34.268Z,11.60
2019-05-21T02:25:02.874Z,10.15
2019-05-21T02:27:31.334Z,10.80
2019-05-21T02:29:59.780Z,8.70
2019-05-21T02:32:28.209Z,10.48
2019-05-21T02:34:56.664Z,8.20
2019-05-21T02:37:25.078Z,8.43
2019-05-21T02:39:53.516Z,9.30
2019-05-21T02:42:21.957Z,8.10
2019-05-21T02:44:54.015Z,8.33
2019-05-21T02:47:20.713Z,7.97
2019-05-21T02:49:49.121Z,7.10
2019-05-21T02:52:17.557Z,7.33
2019-05-21T02:54:46.087Z,6.53
2019-05-21T02:57:14.496Z,6.65
2019-05-21T02:59:44.688Z,7.42
2019-05-21T03:02:14.854Z,6.80
2019-05-21T03:04:43.302Z,7.67
2019-05-21T03:07:17.602Z,7.50
2019-05-21T03:09:48.330Z,7.47
2019-05-21T03:12:17.789Z,6.72
2019-05-21T03:14:46.816Z,5.37
2019-05-21T03:17:15.466Z,6.08
2019-05-21T03:19:43.967Z,5.62
2019-05-21T03:22:12.474Z,6.50
2019-05-21T03:24:40.902Z,5.15
2019-05-21T03:27:09.453Z,6.92
2019-05-21T03:29:37.966Z,5.75
2019-05-21T03:32:06.455Z,5.12
2019-05-21T03:34:34.993Z,5.92
2019-05-21T03:37:03.395Z,5.00
2019-05-21T03:39:31.815Z,5.28
2019-05-21T03:42:00.442Z,5.90
2019-05-21T03:44:28.857Z,5.80
2019-05-21T03:46:57.407Z,5.05
2019-05-21T03:49:26.260Z,4.87
2019-05-21T03:51:54.735Z,5.40
2019-05-21T03:54:23.151Z,5.58
2019-05-21T03:56:51.601Z,5.53
2019-05-21T03:59:20.057Z,5.65
2019-05-21T04:01:48.511Z,6.03
2019-05-21T04:04:16.944Z,5.58
2019-05-21T04:06:51.785Z,6.05
2019-05-21T04:09:15.505Z,6.05
2019-05-21T04:11:43.919Z,5.87
2019-05-21T04:14:14.079Z,5.60
2019-05-21T04:16:44.163Z,6.45
2019-05-21T04:19:14.244Z,5.58
2019-05-21T04:21:42.756Z,6.80
2019-05-21T04:24:11.200Z,7.05
2019-05-21T04:26:39.639Z,6.62
2019-05-21T04:29:08.171Z,5.90
2019-05-21T04:31:36.631Z,6.62
2019-05-21T04:34:05.123Z,6.65
2019-05-21T04:36:33.631Z,7.80
2019-05-21T04:39:02.380Z,6.65
2019-05-21T04:41:30.860Z,8.20
2019-05-21T04:43:59.387Z,7.62
2019-05-21T04:46:27.745Z,7.20
2019-05-21T04:48:56.165Z,7.65
2019-05-21T04:51:24.692Z,8.45
2019-05-21T04:53:53.227Z,8.43
2019-05-21T04:56:21.635Z,7.70
2019-05-21T04:58:50.102Z,7.53
2019-05-21T05:01:18.583Z,7.50
2019-05-21T05:03:47.196Z,9.65
2019-05-21T05:06:15.658Z,9.08
2019-05-21T05:08:44.059Z,9.10
2019-05-21T05:11:12.575Z,7.33
2019-05-21T05:13:41.339Z,8.23
2019-05-21T05:16:09.835Z,8.05
2019-05-21T05:18:38.264Z,7.70
2019-05-21T05:21:06.828Z,8.90
2019-05-21T05:23:35.337Z,8.03
2019-05-21T05:26:04.117Z,7.70
2019-05-21T05:28:32.540Z,7.78
2019-05-21T05:31:01.076Z,7.97
2019-05-21T05:33:29.563Z,8.23
2019-05-21T05:35:58.003Z,7.65
2019-05-21T05:38:26.466Z,8.33
2019-05-21T05:40:54.960Z,7.65
2019-05-21T05:43:23.476Z,8.45
2019-05-21T05:45:51.956Z,9.05
2019-05-21T05:48:20.576Z,8.33
2019-05-21T05:50:53.525Z,9.95
2019-05-21T05:53:21.939Z,9.73
2019-05-21T05:55:50.424Z,8.33
2019-05-21T05:58:18.865Z,7.65
2019-05-21T06:00:47.354Z,9.15
2019-05-21T06:03:15.918Z,8.63
2019-05-21T06:05:44.459Z,9.35
2019-05-21T06:08:12.876Z,7.30
2019-05-21T06:10:41.316Z,6.37
2019-05-21T06:13:09.938Z,7.45
2019-05-21T06:15:38.477Z,9.53
2019-05-21T06:18:07.003Z,9.15
2019-05-21T06:20:35.502Z,12.93
2019-05-21T06:23:04.107Z,9.48
2019-05-21T06:25:32.522Z,8.40
2019-05-21T06:28:01.047Z,9.05
2019-05-21T06:30:29.551Z,6.75
2019-05-21T06:32:58.058Z,6.65
2019-05-21T06:35:26.603Z,6.70
2019-05-21T06:37:55.063Z,5.50
2019-05-21T06:40:23.622Z,5.85
2019-05-21T06:42:52.175Z,5.35
2019-05-21T06:45:21.148Z,5.08
2019-05-21T06:47:49.721Z,4.85
2019-05-21T06:50:18.586Z,5.50
2019-05-21T06:52:47.603Z,4.10
2019-05-21T06:55:16.100Z,4.25
2019-05-21T06:57:44.559Z,4.40
2019-05-21T07:00:13.752Z,3.98
2019-05-21T07:02:42.255Z,3.60
2019-05-21T07:05:10.937Z,6.50
2019-05-21T07:07:39.361Z,3.90
2019-05-21T07:10:08.788Z,3.70
2019-05-21T07:12:37.207Z,4.20
2019-05-21T07:15:08.974Z,4.25
2019-05-21T07:17:37.565Z,3.70
2019-05-21T07:20:07.721Z,4.25
2019-05-21T07:22:36.303Z,4.83
2019-05-21T07:25:06.817Z,5.35
2019-05-21T07:27:35.414Z,4.17
2019-05-21T07:30:04.890Z,4.85
2019-05-21T07:32:33.335Z,4.70
2019-05-21T07:35:01.822Z,6.25
2019-05-21T07:37:33.727Z,3.52
2019-05-21T07:40:02.257Z,4.33
2019-05-21T07:42:30.888Z,3.30
2019-05-21T07:44:59.319Z,3.00
2019-05-21T07:47:27.873Z,3.40
2019-05-21T07:49:56.341Z,3.10
2019-05-21T07:52:24.764Z,2.77
2019-05-21T07:54:53.246Z,2.52
2019-05-21T07:57:21.669Z,2.98
2019-05-21T07:59:50.141Z,2.90
2019-05-21T08:02:18.610Z,2.40
2019-05-21T08:04:46.987Z,2.10
2019-05-21T08:07:15.459Z,2.80
2019-05-21T08:09:43.961Z,2.40
2019-05-21T08:12:36.886Z,1.82
2019-05-21T08:14:42.575Z,1.95
2019-05-21T08:17:11.032Z,11.25
2019-05-21T08:19:39.485Z,14.80
2019-05-21T08:22:07.903Z,4.20
2019-05-21T08:24:36.466Z,2.00
2019-05-21T08:27:05.058Z,3.05
2019-05-21T08:29:33.627Z,8.83
2019-05-21T08:32:02.082Z,5.60
2019-05-21T08:34:30.543Z,8.18
2019-05-21T08:36:59.067Z,1.77
2019-05-21T08:39:29.188Z,2.50
2019-05-21T08:41:57.969Z,5.75
2019-05-21T08:44:26.407Z,2.30
2019-05-21T08:46:54.926Z,2.00
2019-05-21T08:49:23.341Z,3.30
2019-05-21T08:51:52.097Z,2.40
2019-05-21T08:54:22.157Z,1.70
2019-05-21T08:56:50.694Z,2.30
2019-05-21T08:59:19.315Z,1.30
2019-05-21T09:01:47.743Z,1.00
2019-05-21T09:04:16.268Z,1.07
2019-05-21T09:06:44.705Z,1.60
2019-05-21T09:09:13.230Z,1.42
2019-05-21T09:11:41.647Z,5.40
2019-05-21T09:14:10.081Z,1.55
2019-05-21T09:16:38.542Z,5.47
2019-05-21T09:19:07.218Z,2.67
2019-05-21T09:21:35.665Z,2.30
2019-05-21T09:24:04.259Z,2.70
2019-05-21T09:26:32.676Z,2.77
2019-05-21T09:29:01.176Z,2.70
2019-05-21T09:31:29.692Z,4.55
2019-05-21T09:33:58.130Z,4.10
2019-05-21T09:36:26.722Z,5.25
2019-05-21T09:38:55.139Z,3.30
2019-05-21T09:41:23.592Z,2.40
2019-05-21T09:43:52.338Z,1.80
2019-05-21T09:46:20.883Z,2.27
2019-05-21T09:48:49.329Z,2.62
2019-05-21T09:51:20.085Z,3.90
2019-05-21T09:53:47.976Z,3.70
2019-05-21T09:56:34.711Z,3.30
2019-05-21T09:59:07.100Z,2.77
2019-05-21T10:01:49.129Z,4.60
2019-05-21T10:04:17.723Z,4.30
2019-05-21T10:06:46.203Z,4.08
2019-05-21T10:09:16.439Z,7.05
2019-05-21T10:11:45.023Z,4.00
2019-05-21T10:14:13.525Z,3.58
2019-05-21T10:16:42.000Z,8.13
2019-05-21T10:19:10.430Z,5.37
2019-05-21T10:21:38.946Z,8.15
2019-05-21T10:24:07.572Z,23.70
2019-05-21T10:26:36.128Z,1.40
2019-05-21T10:29:05.164Z,1.52
2019-05-21T10:31:33.652Z,0.85
2019-05-21T10:34:02.171Z,1.30
2019-05-21T10:36:30.665Z,3.22
2019-05-21T10:38:59.124Z,4.60
2019-05-21T10:41:27.708Z,1.40
2019-05-21T10:43:56.191Z,1.40
2019-05-21T10:46:24.754Z,1.62
2019-05-21T10:48:53.206Z,1.62
2019-05-21T10:51:21.637Z,5.55
2019-05-21T10:53:50.156Z,1.50
2019-05-21T10:56:18.697Z,1.98
2019-05-21T10:58:47.190Z,2.30
2019-05-21T11:01:17.417Z,2.50
2019-05-21T11:04:03.406Z,2.40
2019-05-21T11:06:32.063Z,1.80
2019-05-21T11:09:00.631Z,3.33
2019-05-21T11:11:29.156Z,2.17
2019-05-21T11:13:57.735Z,3.70
2019-05-21T11:16:26.216Z,3.85
2019-05-21T11:18:56.282Z,2.27
2019-05-21T11:21:24.778Z,2.00
2019-05-21T11:23:53.340Z,1.62
2019-05-21T11:26:21.766Z,2.00
2019-05-21T11:28:50.270Z,2.05
2019-05-21T11:31:18.872Z,9.53
2019-05-21T11:33:47.317Z,2.70
2019-05-21T11:36:15.807Z,4.62
2019-05-21T11:38:44.234Z,3.05
2019-05-21T11:41:12.740Z,1.85
2019-05-21T11:43:41.245Z,1.90
2019-05-21T11:46:09.776Z,1.17
2019-05-21T11:48:38.253Z,1.20
2019-05-21T11:51:06.803Z,1.10
2019-05-21T11:53:35.250Z,1.35
2019-05-21T11:56:03.817Z,1.30
2019-05-21T11:58:32.270Z,2.62
2019-05-21T12:01:01.036Z,1.72
2019-05-21T12:03:29.478Z,2.90
2019-05-21T12:05:57.988Z,5.12
2019-05-21T12:08:26.505Z,9.38
2019-05-21T12:10:55.239Z,4.00
2019-05-21T12:13:23.832Z,3.20
2019-05-21T12:15:52.272Z,2.20
2019-05-21T12:18:21.045Z,4.15
2019-05-21T12:20:49.605Z,6.85
2019-05-21T12:23:18.045Z,10.82
2019-05-21T12:25:46.649Z,2.92
2019-05-21T12:28:15.162Z,5.45
2019-05-21T12:30:43.677Z,2.70
2019-05-21T12:33:12.128Z,1.80
2019-05-21T12:35:40.615Z,2.25
2019-05-21T12:38:09.075Z,1.60
2019-05-21T12:40:37.498Z,3.37
2019-05-21T12:43:06.033Z,1.70
2019-05-21T12:45:34.534Z,1.55
2019-05-21T12:48:03.023Z,4.35
2019-05-21T12:50:31.544Z,13.18
2019-05-21T12:53:00.089Z,26.87
2019-05-21T12:55:28.683Z,6.47
2019-05-21T12:57:57.181Z,27.55
2019-05-21T13:00:28.699Z,5.92
2019-05-21T13:02:57.291Z,6.40
2019-05-21T13:05:25.780Z,17.45
2019-05-21T13:07:54.289Z,8.83
2019-05-21T13:10:22.897Z,4.95
2019-05-21T13:12:51.418Z,3.30
2019-05-21T13:15:19.942Z,2.47
2019-05-21T13:17:48.427Z,2.50
2019-05-21T13:20:17.783Z,2.30
2019-05-21T13:22:46.203Z,3.62
2019-05-21T13:25:14.814Z,2.17
2019-05-21T13:27:43.258Z,14.23
2019-05-21T13:30:12.131Z,15.38
2019-05-21T13:32:43.666Z,3.50
2019-05-21T13:35:11.167Z,3.05
2019-05-21T13:37:39.669Z,2.60
2019-05-21T13:40:09.585Z,2.90
2019-05-21T13:42:38.009Z,3.60
2019-05-21T13:45:08.211Z,1.95
2019-05-21T13:47:36.669Z,1.90
2019-05-21T13:50:06.904Z,1.70
2019-05-21T13:52:35.371Z,2.80
2019-05-21T13:55:05.654Z,2.60
2019-05-21T13:57:34.257Z,2.40
2019-05-21T14:00:02.984Z,2.77
2019-05-21T14:02:31.424Z,4.55
2019-05-21T14:05:00.215Z,7.00
2019-05-21T14:07:28.675Z,9.45
2019-05-21T14:10:13.265Z,10.50
2019-05-21T14:12:27.606Z,8.43
2019-05-21T14:14:56.136Z,13.48
2019-05-21T14:17:24.668Z,10.43
2019-05-21T14:19:53.106Z,3.70
2019-05-21T14:22:21.660Z,3.47
2019-05-21T14:24:50.163Z,4.30
2019-05-21T14:27:18.714Z,2.90
2019-05-21T14:29:47.240Z,3.25
2019-05-21T14:32:15.671Z,4.70
2019-05-21T14:35:00.242Z,4.00
2019-05-21T14:37:14.437Z,4.37
2019-05-21T14:39:42.903Z,4.40
2019-05-21T14:42:11.403Z,11.93
2019-05-21T14:44:39.882Z,12.18
2019-05-21T14:47:08.345Z,4.95
2019-05-21T14:49:36.773Z,4.50
2019-05-21T14:52:05.649Z,5.58
2019-05-21T14:54:34.148Z,8.75
2019-05-21T14:57:04.250Z,6.60
2019-05-21T14:59:32.806Z,6.75
2019-05-21T15:02:01.765Z,21.62
2019-05-21T15:04:30.423Z,4.00
2019-05-21T15:06:59.134Z,23.38
2019-05-21T15:09:27.556Z,4.83
2019-05-21T15:11:55.961Z,5.70
2019-05-21T15:14:24.425Z,5.05
2019-05-21T15:16:52.978Z,5.30
2019-05-21T15:19:21.577Z,4.42
2019-05-21T15:21:51.669Z,4.95
2019-05-21T15:24:20.178Z,4.53
2019-05-21T15:26:48.858Z,4.30
2019-05-21T15:29:17.293Z,4.25
2019-05-21T15:31:45.751Z,4.45
2019-05-21T15:34:14.211Z,4.45
2019-05-21T15:36:42.831Z,7.50
2019-05-21T15:39:11.395Z,6.53
2019-05-21T15:41:39.919Z,5.87
2019-05-21T15:44:08.422Z,6.22
2019-05-21T15:46:47.724Z,4.08
2019-05-21T15:49:07.206Z,5.00
2019-05-21T15:51:35.743Z,4.58
2019-05-21T15:54:04.322Z,5.37
2019-05-21T15:56:32.864Z,6.37
2019-05-21T15:59:01.747Z,4.30
2019-05-21T16:01:30.304Z,4.05
2019-05-21T16:03:58.771Z,4.83
2019-05-21T16:06:27.280Z,5.10
2019-05-21T16:08:55.834Z,8.18
2019-05-21T16:11:28.695Z,4.40
2019-05-21T16:13:54.610Z,3.58
2019-05-21T16:16:23.211Z,4.33
2019-05-21T16:18:51.853Z,3.67
2019-05-21T16:21:20.354Z,4.35
2019-05-21T16:23:48.924Z,3.58
2019-05-21T16:26:17.484Z,4.22
2019-05-21T16:28:45.944Z,9.90
2019-05-21T16:31:14.461Z,14.10
2019-05-21T16:33:42.940Z,6.60
2019-05-21T16:36:11.429Z,8.88
2019-05-21T16:38:40.022Z,6.62
2019-05-21T16:41:08.541Z,6.83
2019-05-21T16:43:37.164Z,8.90
2019-05-21T16:46:05.727Z,5.72
2019-05-21T16:48:34.263Z,8.73
2019-05-21T16:51:02.921Z,7.90
2019-05-21T16:53:31.411Z,8.75
2019-05-21T16:55:59.856Z,6.03
2019-05-21T16:58:28.389Z,6.00
2019-05-21T17:00:56.898Z,7.17
2019-05-21T17:03:25.356Z,6.50
2019-05-21T17:05:53.852Z,6.05
2019-05-21T17:08:22.316Z,5.20
2019-05-21T17:10:50.805Z,6.33
2019-05-21T17:13:19.310Z,5.90
2019-05-21T17:15:47.784Z,5.55
2019-05-21T17:18:16.374Z,4.78
2019-05-21T17:20:44.875Z,7.63
2019-05-21T17:23:13.330Z,7.97
2019-05-21T17:25:41.887Z,6.83
2019-05-21T17:28:10.362Z,7.67
2019-05-21T17:30:38.783Z,6.22
2019-05-21T17:33:07.312Z,5.95
2019-05-21T17:35:35.908Z,7.00
2019-05-21T17:38:04.568Z,6.78
2019-05-21T17:40:33.022Z,5.62
2019-05-21T17:43:01.529Z,6.60
2019-05-21T17:45:29.978Z,6.72
2019-05-21T17:47:58.479Z,6.80
2019-05-21T17:50:27.239Z,7.75
2019-05-21T17:52:55.894Z,71.85
2019-05-21T17:55:24.469Z,10.88
2019-05-21T17:57:53.153Z,12.70
2019-05-21T18:00:24.081Z,10.15
2019-05-21T18:02:53.122Z,9.30
2019-05-21T18:05:21.634Z,12.05
2019-05-21T18:07:50.620Z,9.40
2019-05-21T18:10:19.229Z,11.38
2019-05-21T18:12:47.764Z,9.85
2019-05-21T18:15:16.927Z,10.70
2019-05-21T18:17:46.054Z,9.88
2019-05-21T18:20:15.851Z,10.00
2019-05-21T18:22:45.651Z,9.65
2019-05-21T18:25:14.333Z,10.28
2019-05-21T18:27:43.124Z,8.20
2019-05-21T18:30:13.432Z,8.90
2019-05-21T18:32:42.149Z,9.68
2019-05-21T18:35:11.741Z,10.10
2019-05-21T18:37:40.630Z,11.22
2019-05-21T18:40:09.665Z,11.20
2019-05-21T18:42:38.211Z,11.22
2019-05-21T18:45:07.283Z,9.78
2019-05-21T18:47:35.808Z,10.60
2019-05-21T18:50:06.877Z,11.53
2019-05-21T18:52:35.512Z,11.18
2019-05-21T18:55:05.173Z,12.68
2019-05-21T18:57:33.777Z,14.28
2019-05-21T19:00:02.241Z,15.53
2019-05-21T19:02:30.744Z,12.90
2019-05-21T19:04:59.288Z,14.78
2019-05-21T19:07:27.797Z,13.20
2019-05-21T19:09:56.423Z,11.90
2019-05-21T19:12:37.375Z,13.90
2019-05-21T19:14:55.547Z,13.08
2019-05-21T19:17:35.142Z,13.75
2019-05-21T19:19:54.239Z,11.45
2019-05-21T19:22:22.963Z,15.28
2019-05-21T19:24:51.564Z,13.15
2019-05-21T19:27:20.271Z,12.40
2019-05-21T19:29:48.794Z,13.75
2019-05-21T19:32:17.306Z,16.17
2019-05-21T19:34:45.765Z,12.55
2019-05-21T19:37:14.246Z,14.38
2019-05-21T19:39:42.761Z,15.58
2019-05-21T19:42:11.623Z,17.23
2019-05-21T19:44:40.305Z,13.62
2019-05-21T19:47:08.813Z,15.53
2019-05-21T19:49:37.280Z,13.98
2019-05-21T19:52:05.786Z,13.25
2019-05-21T19:54:34.359Z,14.13
2019-05-21T19:57:03.195Z,12.30
2019-05-21T19:59:31.688Z,14.23
2019-05-21T20:02:01.603Z,14.90
2019-05-21T20:04:30.890Z,14.98
2019-05-21T20:06:59.547Z,13.98
2019-05-21T20:09:29.756Z,15.83
2019-05-21T20:11:58.251Z,14.15
2019-05-21T20:14:26.818Z,13.65
2019-05-21T20:16:55.490Z,14.30
2019-05-21T20:19:25.354Z,12.43
2019-05-21T20:21:54.526Z,12.90
2019-05-21T20:24:24.102Z,14.50
2019-05-21T20:26:52.624Z,13.18
2019-05-21T20:29:21.954Z,13.18
2019-05-21T20:31:50.557Z,14.73
2019-05-21T20:34:19.287Z,16.23
2019-05-21T20:36:47.976Z,14.43
2019-05-21T20:39:19.341Z,13.20
2019-05-21T20:41:48.713Z,15.58
2019-05-21T20:44:17.967Z,12.47
2019-05-21T20:46:48.137Z,12.68
2019-05-21T20:49:16.905Z,13.75
2019-05-21T20:51:45.803Z,14.43
2019-05-21T20:54:15.654Z,14.13
2019-05-21T20:56:44.637Z,15.13
2019-05-21T20:59:13.237Z,13.50
2019-05-21T21:01:43.815Z,12.80
2019-05-21T21:04:12.456Z,13.90
2019-05-21T21:06:41.690Z,15.98
2019-05-21T21:09:11.890Z,12.20
2019-05-21T21:11:41.445Z,16.17
2019-05-21T21:14:17.891Z,13.05
2019-05-21T21:16:43.704Z,13.83
2019-05-21T21:19:12.587Z,13.32
2019-05-21T21:21:41.224Z,15.00
2019-05-21T21:24:09.954Z,15.00
2019-05-21T21:26:38.843Z,10.78
2019-05-21T21:29:08.641Z,11.55
2019-05-21T21:31:37.164Z,10.95
2019-05-21T21:34:06.030Z,11.18
2019-05-21T21:36:35.384Z,10.13
2019-05-21T21:39:07.446Z,11.38
2019-05-21T21:41:36.809Z,8.95
2019-05-21T21:44:06.171Z,9.55
2019-05-21T21:46:34.973Z,9.65
2019-05-21T21:49:04.812Z,11.48
2019-05-21T21:51:34.328Z,9.80
2019-05-21T21:54:02.859Z,11.73
2019-05-21T21:56:31.401Z,11.78
2019-05-21T21:59:00.012Z,9.83
2019-05-21T22:01:35.649Z,10.80
2019-05-21T22:04:06.057Z,11.05
2019-05-21T22:06:36.517Z,11.03
2019-05-21T22:09:07.856Z,10.68
2019-05-21T22:11:37.066Z,10.35
2019-05-21T22:14:05.910Z,9.95
2019-05-21T22:16:35.094Z,10.93
2019-05-21T22:19:04.164Z,9.98
2019-05-21T22:21:33.862Z,9.88
2019-05-21T22:24:02.434Z,11.05
2019-05-21T22:26:31.183Z,11.70
2019-05-21T22:28:59.804Z,11.40
2019-05-21T22:31:28.302Z,10.03
2019-05-21T22:33:56.740Z,10.32
2019-05-21T22:36:25.522Z,12.07
2019-05-21T22:38:54.108Z,10.32
2019-05-21T22:41:22.667Z,11.50
2019-05-21T22:43:52.248Z,11.80
2019-05-21T22:46:21.120Z,10.60
2019-05-21T22:48:49.640Z,12.78
2019-05-21T22:51:18.259Z,13.10
2019-05-21T22:53:47.392Z,11.45
2019-05-21T22:56:16.127Z,12.63
2019-05-21T22:58:44.566Z,14.20
2019-05-21T23:01:14.464Z,11.70
2019-05-21T23:03:43.496Z,12.20
2019-05-21T23:06:11.929Z,12.25
2019-05-21T23:08:40.544Z,13.00
2019-05-21T23:11:09.120Z,14.18
2019-05-21T23:13:37.797Z,12.80
2019-05-21T23:16:06.529Z,11.83
2019-05-21T23:18:35.471Z,15.35
2019-05-21T23:21:07.208Z,13.50
2019-05-21T23:23:37.386Z,11.85
2019-05-21T23:26:07.742Z,14.80
2019-05-21T23:28:37.572Z,16.12
2019-05-21T23:31:06.109Z,13.55
2019-05-21T23:33:35.213Z,15.08
2019-05-21T23:36:04.474Z,14.55
2019-05-21T23:38:32.999Z,14.10
2019-05-21T23:41:03.586Z,16.90
2019-05-21T23:43:32.476Z,15.50
2019-05-21T23:46:01.089Z,14.75
2019-05-21T23:48:30.268Z,15.25
2019-05-21T23:50:59.124Z,16.75
2019-05-21T23:53:27.686Z,15.10
2019-05-21T23:55:56.425Z,17.75
2019-05-21T23:58:24.883Z,16.67
